Time;durP1;ratioP1;P1;durP2;ratioP2;P2;SDS_P1;SDS_P2;PMS_P1;PMS_P2;Temp;Humidity;BMP_temperature;BMP_pressure;BME280_temperature;BME280_humidity;BME280_pressure;Samples;Min_cycle;Max_cycle;Signal;HPM_P1;HPM_P2
2023/01/27 04:48:07;;;;;;;;;;;19.70;43.10;;;;;;6721441;23;19974;-53
2023/01/27 05:50:54;;;;;;;;;;;20.30;43.40;;;;;;7272828;23;19927;-56
2023/01/27 05:53:56;;;;;;;;;;;20.20;46.20;;;;;;6162064;28;19910;-54
2023/01/27 05:56:58;;;;;;;;;;;19.90;46.00;;;;;;6162014;28;19955;-54
2023/01/27 05:59:59;;;;;;;;;;;19.90;46.20;;;;;;6161967;29;19957;-54
2023/01/27 06:03:01;;;;;;;;;;;19.90;46.20;;;;;;6162054;28;19911;-55
2023/01/27 06:12:59;;;;;;;;;;;20.00;43.40;;;;;;7111582;23;19911;-55
2023/01/27 06:16:01;;;;;;;;;;;20.20;46.20;;;;;;6161683;28;19995;-56
2023/01/27 06:19:02;;;;;;;;;;;20.60;46.30;;;;;;6160947;28;19953;-52
2023/01/27 06:28:59;;;;;;;;;;;20.10;43.20;;;;;;7263637;23;19915;-54
2023/01/27 06:32:00;;;;;;;;;;;20.60;46.40;;;;;;6161292;29;19910;-53
2023/01/27 06:38:33;;;;;;;;;;;20.30;43.50;;;;;;7066914;23;19982;-55
2023/01/27 06:41:35;;;;;;;;;;;20.20;46.20;;;;;;6161135;29;19911;-57
2023/01/27 06:59:45;;;;;;;;;;;20.40;43.40;;;;;;6159257;29;19923;-56
2023/01/27 07:02:46;;;;;;;;;;;19.40;45.80;;;;;;6159291;29;19936;-56
2023/01/27 07:05:48;;;;;;;;;;;20.00;46.00;;;;;;6159152;28;19933;-57
2023/01/27 07:08:49;;;;;;;;;;;20.30;46.40;;;;;;6158790;29;19911;-57
2023/01/27 07:11:52;;;;;;;;;;;19.80;45.70;;;;;;6158224;29;19938;-56
2023/01/27 07:14:53;;;;;;;;;;;20.30;46.10;;;;;;6157711;29;19926;-57
2023/01/27 07:17:57;;;;;;;;;;;19.90;46.10;;;;;;6157647;29;19911;-56
2023/01/27 07:20:58;;;;;;;;;;;20.40;45.90;;;;;;6157566;29;19987;-57
2023/01/27 07:23:59;;;;;;;;;;;19.90;45.80;;;;;;6155970;29;19982;-57
2023/01/27 07:27:01;;;;;;;;;;;20.60;46.30;;;;;;6156085;29;19926;-57
2023/01/27 07:30:03;;;;;;;;;;;19.70;45.30;;;;;;6154587;29;19921;-57
2023/01/27 07:33:05;;;;;;;;;;;20.60;46.00;;;;;;6157176;28;19963;-56
2023/01/27 07:36:07;;;;;;;;;;;20.40;45.80;;;;;;6247996;23;19927;-55
2023/01/27 07:39:08;;;;;;;;;;;20.40;46.00;;;;;;6158134;29;20394;-56
2023/01/27 07:42:09;;;;;;;;;;;20.00;45.80;;;;;;6157398;29;19911;-56
2023/01/27 07:45:11;;;;;;;;;;;20.40;45.90;;;;;;6156735;29;19934;-57
2023/01/27 07:48:13;;;;;;;;;;;19.90;45.60;;;;;;6156887;28;19933;-55
2023/01/27 07:51:14;;;;;;;;;;;20.80;46.00;;;;;;6142653;29;19978;-58
2023/01/27 07:54:16;;;;;;;;;;;20.20;45.80;;;;;;6129208;29;19938;-58
2023/01/27 07:57:17;;;;;;;;;;;21.00;46.20;;;;;;6128355;29;19946;-58
2023/01/27 08:00:20;;;;;;;;;;;20.20;45.70;;;;;;6130316;29;19927;-55
2023/01/27 08:03:22;;;;;;;;;;;20.80;46.50;;;;;;6128518;29;19927;-54
2023/01/27 08:06:24;;;;;;;;;;;20.10;46.10;;;;;;6127617;29;19934;-56
2023/01/27 08:09:26;;;;;;;;;;;21.10;46.70;;;;;;6128237;29;19934;-58
2023/01/27 08:12:27;;;;;;;;;;;20.20;46.10;;;;;;6127814;29;19974;-61
2023/01/27 08:15:29;;;;;;;;;;;20.90;46.50;;;;;;6131161;29;19927;-59
2023/01/27 08:18:32;;;;;;;;;;;20.10;46.00;;;;;;6129032;29;19927;-59
2023/01/27 08:21:33;;;;;;;;;;;20.60;46.00;;;;;;6129329;29;19933;-58
2023/01/27 08:24:35;;;;;;;;;;;20.60;46.20;;;;;;6129170;29;19942;-60
2023/01/27 08:27:36;;;;;;;;;;;21.00;46.20;;;;;;6128999;29;20351;-59
2023/01/27 08:30:38;;;;;;;;;;;20.60;45.70;;;;;;6131114;29;20385;-59
2023/01/27 08:33:43;;;;;;;;;;;21.10;46.30;;;;;;6129260;29;19927;-59
2023/01/27 08:36:45;;;;;;;;;;;20.60;43.00;;;;;;6127388;29;19998;-59
2023/01/27 08:39:46;;;;;;;;;;;20.50;45.80;;;;;;6128782;29;19937;-59
2023/01/27 08:42:49;;;;;;;;;;;20.30;45.60;;;;;;6130151;29;19927;-59
2023/01/27 08:45:51;;;;;;;;;;;21.20;46.30;;;;;;6127747;29;19927;-59
2023/01/27 08:48:53;;;;;;;;;;;20.50;45.80;;;;;;6127268;29;20402;-59
2023/01/27 08:51:54;;;;;;;;;;;20.70;45.90;;;;;;6127179;29;19934;-59
2023/01/27 08:54:55;;;;;;;;;;;20.50;45.70;;;;;;6126656;29;19926;-60
2023/01/27 08:57:57;;;;;;;;;;;20.50;45.60;;;;;;6127312;29;19934;-59
2023/01/27 09:01:01;;;;;;;;;;;20.30;45.70;;;;;;6125684;29;19993;-59
2023/01/27 09:04:02;;;;;;;;;;;20.90;46.00;;;;;;6126970;29;19927;-59
2023/01/27 09:07:03;;;;;;;;;;;20.30;44.30;;;;;;6127887;29;20050;-59
2023/01/27 09:10:05;;;;;;;;;;;20.80;45.90;;;;;;6128801;29;19982;-59
2023/01/27 09:13:17;;;;;;;;;;;20.60;45.70;;;;;;6104523;29;21093;-59
2023/01/27 09:16:19;;;;;;;;;;;20.90;45.80;;;;;;6103646;29;20295;-59
2023/01/27 09:19:21;;;;;;;;;;;20.80;45.20;;;;;;6103235;29;19927;-59
2023/01/27 09:22:22;;;;;;;;;;;20.20;45.30;;;;;;6103101;29;20402;-59
2023/01/27 09:25:23;;;;;;;;;;;20.60;45.80;;;;;;6103619;29;19935;-59
2023/01/27 09:28:25;;;;;;;;;;;20.90;45.90;;;;;;6103057;29;19927;-59
2023/01/27 09:31:27;;;;;;;;;;;20.80;45.30;;;;;;6102683;29;19954;-59
2023/01/27 09:34:29;;;;;;;;;;;20.30;45.50;;;;;;6103363;29;19931;-59
2023/01/27 09:37:31;;;;;;;;;;;21.30;46.00;;;;;;6103912;29;19931;-59
2023/01/27 09:40:37;;;;;;;;;;;20.40;45.40;;;;;;6105332;29;20296;-59
2023/01/27 09:43:49;;;;;;;;;;;20.90;46.30;;;;;;6104321;29;19934;-59
2023/01/27 09:46:57;;;;;;;;;;;20.30;45.30;;;;;;6108267;29;19927;-57
2023/01/27 09:50:09;;;;;;;;;;;21.00;45.80;;;;;;6102475;29;19927;-55
2023/01/27 09:53:25;;;;;;;;;;;20.40;45.40;;;;;;6103124;29;20451;-58
2023/01/27 09:56:31;;;;;;;;;;;20.60;44.80;;;;;;6102608;29;19931;-58
2023/01/27 09:59:38;;;;;;;;;;;20.60;45.60;;;;;;6101389;29;20324;-58
2023/01/27 10:02:51;;;;;;;;;;;21.20;45.80;;;;;;6101076;29;19927;-58
2023/01/27 10:06:00;;;;;;;;;;;20.40;45.30;;;;;;6102720;29;19931;-58
2023/01/27 10:09:12;;;;;;;;;;;20.10;45.20;;;;;;6102749;29;19933;-58
2023/01/27 10:12:21;;;;;;;;;;;20.60;45.60;;;;;;6102264;29;19927;-58
2023/01/27 10:15:31;;;;;;;;;;;20.60;45.40;;;;;;6106739;29;19934;-58
2023/01/27 10:23:12;;;;;;;;;;;20.90;42.70;;;;;;6106991;29;19919;-59
2023/01/27 10:26:20;;;;;;;;;;;21.10;45.70;;;;;;6104907;29;19978;-58
2023/01/27 10:29:23;;;;;;;;;;;20.80;45.50;;;;;;6105851;29;19934;-58
2023/01/27 10:32:26;;;;;;;;;;;21.30;45.70;;;;;;6106323;29;19935;-58
2023/01/27 10:35:30;;;;;;;;;;;20.30;45.30;;;;;;6105926;29;19975;-58
2023/01/27 10:38:36;;;;;;;;;;;21.10;45.60;;;;;;6105702;29;19927;-58
2023/01/27 10:41:43;;;;;;;;;;;20.80;45.40;;;;;;6106187;29;19934;-59
2023/01/27 10:44:50;;;;;;;;;;;20.80;44.90;;;;;;6104840;29;20364;-58
2023/01/27 10:47:59;;;;;;;;;;;20.60;45.40;;;;;;6105854;29;19974;-58
2023/01/27 10:51:04;;;;;;;;;;;20.90;46.10;;;;;;6105976;29;19928;-58
2023/01/27 10:54:09;;;;;;;;;;;20.90;45.60;;;;;;6105758;29;19931;-58
2023/01/27 10:57:13;;;;;;;;;;;21.30;46.40;;;;;;6105596;29;19928;-58
2023/01/27 11:00:16;;;;;;;;;;;20.50;45.50;;;;;;6105840;29;19927;-58
2023/01/27 11:03:39;;;;;;;;;;;21.20;45.60;;;;;;6104866;29;20387;-58
2023/01/27 11:06:41;;;;;;;;;;;20.40;45.30;;;;;;6105471;29;19967;-58
2023/01/27 11:09:47;;;;;;;;;;;21.10;45.50;;;;;;6105740;29;19999;-58
2023/01/27 11:12:50;;;;;;;;;;;20.80;46.40;;;;;;6105423;29;19927;-58
2023/01/27 11:15:52;;;;;;;;;;;20.70;45.30;;;;;;6105604;29;19959;-58
2023/01/27 11:18:55;;;;;;;;;;;20.40;45.30;;;;;;6105118;29;19927;-58
2023/01/27 11:21:57;;;;;;;;;;;21.30;45.80;;;;;;6105173;29;20391;-58
2023/01/27 11:25:16;;;;;;;;;;;20.40;45.30;;;;;;6104866;29;19934;-58
2023/01/27 11:28:23;;;;;;;;;;;20.90;45.50;;;;;;6103931;29;19927;-59
2023/01/27 11:31:33;;;;;;;;;;;20.50;45.20;;;;;;6105400;29;20453;-58
2023/01/27 11:34:40;;;;;;;;;;;20.70;45.20;;;;;;6106301;29;20388;-57
2023/01/27 11:37:43;;;;;;;;;;;20.50;45.30;;;;;;6106549;29;19934;-57
2023/01/27 11:40:47;;;;;;;;;;;21.30;45.80;;;;;;6105775;29;19927;-58
2023/01/27 11:43:48;;;;;;;;;;;20.90;45.60;;;;;;6108338;29;20049;-57
2023/01/27 11:46:51;;;;;;;;;;;21.10;45.60;;;;;;6107299;29;19967;-58
2023/01/27 11:49:53;;;;;;;;;;;20.50;45.60;;;;;;6108069;29;19927;-57
2023/01/27 11:52:57;;;;;;;;;;;21.00;45.50;;;;;;6110338;29;19931;-57
2023/01/27 11:56:01;;;;;;;;;;;20.70;45.40;;;;;;6109761;29;19927;-55
2023/01/27 11:59:05;;;;;;;;;;;21.40;45.90;;;;;;6109420;29;19979;-55
2023/01/27 12:02:17;;;;;;;;;;;20.40;45.10;;;;;;6110329;29;19931;-57
2023/01/27 12:05:20;;;;;;;;;;;21.20;45.40;;;;;;6107604;29;19980;-58
2023/01/27 12:12:57;;;;;;;;;;;20.90;42.50;;;;;;6108224;29;19927;-57
2023/01/27 12:16:00;;;;;;;;;;;21.30;45.70;;;;;;6109557;29;20296;-57
2023/01/27 12:19:03;;;;;;;;;;;20.90;45.30;;;;;;6117686;29;19999;-57
2023/01/27 12:22:07;;;;;;;;;;;21.30;45.50;;;;;;6134774;29;19911;-57
2023/01/27 12:25:14;;;;;;;;;;;20.50;45.00;;;;;;6134508;29;19927;-57
2023/01/27 12:28:21;;;;;;;;;;;21.20;45.20;;;;;;6133924;29;19916;-57
2023/01/27 12:31:23;;;;;;;;;;;20.80;45.10;;;;;;6132839;29;19911;-58
2023/01/27 12:34:27;;;;;;;;;;;21.30;45.40;;;;;;6133781;29;19915;-57
2023/01/27 12:37:30;;;;;;;;;;;20.80;45.20;;;;;;6134079;29;19962;-59
2023/01/27 12:40:32;;;;;;;;;;;21.30;45.50;;;;;;6128111;29;19974;-58
2023/01/27 12:43:49;;;;;;;;;;;20.70;45.00;;;;;;6116074;29;19934;-57
2023/01/27 12:46:56;;;;;;;;;;;21.00;44.60;;;;;;6118175;29;20304;-58
2023/01/27 12:50:18;;;;;;;;;;;20.50;44.90;;;;;;6118711;29;19927;-58
2023/01/27 12:53:20;;;;;;;;;;;20.60;45.70;;;;;;6128176;29;19927;-56
2023/01/27 12:56:22;;;;;;;;;;;20.90;45.30;;;;;;6120869;29;19927;-56
2023/01/27 12:59:24;;;;;;;;;;;21.50;45.50;;;;;;6121446;29;19927;-57
2023/01/27 13:02:29;;;;;;;;;;;20.60;45.10;;;;;;6127298;29;19927;-57
2023/01/27 13:05:38;;;;;;;;;;;21.30;45.40;;;;;;6117528;29;19931;-57
2023/01/27 13:08:40;;;;;;;;;;;20.90;44.90;;;;;;6126189;29;19989;-56
2023/01/27 13:11:43;;;;;;;;;;;21.10;45.00;;;;;;6122166;29;20368;-58
2023/01/27 13:14:48;;;;;;;;;;;20.80;44.90;;;;;;6117638;29;19927;-55
2023/01/27 13:17:51;;;;;;;;;;;21.60;45.70;;;;;;6093869;29;19966;-53
2023/01/27 13:20:56;;;;;;;;;;;21.00;45.00;;;;;;6114545;29;20403;-51
2023/01/27 13:23:59;;;;;;;;;;;21.10;44.70;;;;;;6112309;29;19934;-55
2023/01/27 13:27:01;;;;;;;;;;;21.40;45.50;;;;;;6110198;29;19942;-53
2023/01/27 13:30:04;;;;;;;;;;;21.00;45.00;;;;;;6109194;29;19928;-55
2023/01/27 13:33:13;;;;;;;;;;;21.00;45.10;;;;;;6102892;29;19927;-55
2023/01/27 13:36:19;;;;;;;;;;;21.30;45.20;;;;;;6104030;29;19927;-54
2023/01/27 13:39:27;;;;;;;;;;;20.80;44.90;;;;;;6104488;29;19935;-54
2023/01/27 13:42:32;;;;;;;;;;;21.40;45.30;;;;;;6103537;29;19955;-54
2023/01/27 13:45:39;;;;;;;;;;;20.90;45.00;;;;;;6104403;29;20292;-52
2023/01/27 13:48:43;;;;;;;;;;;21.40;45.30;;;;;;6106211;29;19927;-53
2023/01/27 13:51:45;;;;;;;;;;;21.00;45.30;;;;;;6108617;29;19927;-52
2023/01/27 13:54:46;;;;;;;;;;;21.10;45.20;;;;;;6107946;29;19982;-51
2023/01/27 13:57:53;;;;;;;;;;;21.00;45.10;;;;;;6110819;29;19970;-53
2023/01/27 14:00:58;;;;;;;;;;;21.00;45.00;;;;;;6108060;29;20379;-54
2023/01/27 14:04:08;;;;;;;;;;;20.80;44.80;;;;;;6107885;29;19927;-54
2023/01/27 14:07:15;;;;;;;;;;;21.40;45.20;;;;;;6107533;29;19986;-54
2023/01/27 14:10:21;;;;;;;;;;;20.70;44.80;;;;;;6107177;29;19938;-56
2023/01/27 14:13:30;;;;;;;;;;;21.10;45.00;;;;;;6108354;29;20387;-55
2023/01/27 14:16:38;;;;;;;;;;;20.80;44.90;;;;;;6107235;29;20356;-53
2023/01/27 14:19:46;;;;;;;;;;;21.60;45.20;;;;;;6109450;29;19935;-54
2023/01/27 14:22:53;;;;;;;;;;;21.00;44.90;;;;;;6110121;29;19927;-55
2023/01/27 14:25:58;;;;;;;;;;;21.40;45.30;;;;;;6107128;29;19928;-56
2023/01/27 14:29:05;;;;;;;;;;;20.90;44.80;;;;;;6106925;29;19934;-51
2023/01/27 14:32:12;;;;;;;;;;;21.20;44.90;;;;;;6108301;29;19931;-53
2023/01/27 14:35:19;;;;;;;;;;;20.90;44.80;;;;;;6107084;29;19927;-56
2023/01/27 14:38:25;;;;;;;;;;;21.40;45.10;;;;;;6107028;29;19983;-54
2023/01/27 14:41:30;;;;;;;;;;;20.80;44.80;;;;;;6106231;29;19938;-56
2023/01/27 14:44:35;;;;;;;;;;;21.50;45.20;;;;;;6106362;29;19943;-53
2023/01/27 14:47:58;;;;;;;;;;;21.30;45.10;;;;;;6106121;29;19966;-53
2023/01/27 14:51:05;;;;;;;;;;;21.20;45.10;;;;;;6106328;29;20280;-54
2023/01/27 14:54:19;;;;;;;;;;;21.00;45.00;;;;;;6106362;29;19935;-53
2023/01/27 14:57:24;;;;;;;;;;;21.60;45.40;;;;;;6108921;29;19927;-54
2023/01/27 15:00:32;;;;;;;;;;;21.30;45.20;;;;;;6107718;29;19931;-52
2023/01/27 15:03:43;;;;;;;;;;;21.30;44.60;;;;;;6112005;29;20300;-54
2023/01/27 15:06:46;;;;;;;;;;;21.20;45.10;;;;;;6117008;29;19927;-57
2023/01/27 15:09:54;;;;;;;;;;;21.10;45.40;;;;;;6122371;29;19927;-56
2023/01/27 15:13:04;;;;;;;;;;;20.90;45.20;;;;;;6126789;29;19927;-55
2023/01/27 15:16:15;;;;;;;;;;;21.70;45.70;;;;;;6126146;29;19951;-55
2023/01/27 15:19:27;;;;;;;;;;;21.30;45.40;;;;;;6120902;29;19933;-57
2023/01/27 15:22:39;;;;;;;;;;;21.30;45.40;;;;;;6109188;29;19927;-58
2023/01/27 15:25:43;;;;;;;;;;;21.00;45.20;;;;;;6118184;29;20451;-58
2023/01/27 15:28:44;;;;;;;;;;;21.80;45.70;;;;;;6125015;29;19927;-58
2023/01/27 15:32:08;;;;;;;;;;;21.20;45.30;;;;;;6129703;29;19931;-57
2023/01/27 15:35:28;;;;;;;;;;;21.70;45.40;;;;;;6118716;29;19977;-58
2023/01/27 15:38:33;;;;;;;;;;;21.00;45.10;;;;;;6125021;29;19927;-58
2023/01/27 15:41:35;;;;;;;;;;;21.60;45.30;;;;;;6116359;29;19915;-55
2023/01/27 15:44:38;;;;;;;;;;;21.40;45.30;;;;;;6125884;29;19950;-54
2023/01/27 15:47:40;;;;;;;;;;;21.80;45.60;;;;;;6117015;29;19951;-58
2023/01/27 15:50:44;;;;;;;;;;;21.30;45.20;;;;;;6113950;29;19935;-58
2023/01/27 15:53:48;;;;;;;;;;;22.00;45.40;;;;;;6106691;29;19934;-58
2023/01/27 15:56:52;;;;;;;;;;;21.20;45.00;;;;;;6116871;29;19927;-57
2023/01/27 15:59:54;;;;;;;;;;;21.80;45.40;;;;;;6156994;23;19934;-59
2023/01/27 16:03:02;;;;;;;;;;;21.50;45.00;;;;;;6108601;29;19934;-59
2023/01/27 16:06:08;;;;;;;;;;;21.50;44.90;;;;;;6114329;29;19927;-54
2023/01/27 16:09:17;;;;;;;;;;;21.50;45.10;;;;;;6117532;29;19927;-51
2023/01/27 16:12:30;;;;;;;;;;;21.50;45.00;;;;;;6121512;29;19978;-56
2023/01/27 16:15:34;;;;;;;;;;;21.50;45.10;;;;;;6107319;29;19938;-58
2023/01/27 16:18:42;;;;;;;;;;;21.70;45.10;;;;;;6106992;29;19927;-59
2023/01/27 16:21:48;;;;;;;;;;;21.50;44.90;;;;;;6109504;29;19927;-59
2023/01/27 16:24:54;;;;;;;;;;;21.70;44.90;;;;;;6105272;29;19928;-57
2023/01/27 16:27:59;;;;;;;;;;;21.10;45.30;;;;;;6104785;29;20295;-60
2023/01/27 16:31:02;;;;;;;;;;;22.20;45.40;;;;;;6106507;29;19927;-58
2023/01/27 16:34:05;;;;;;;;;;;21.30;45.00;;;;;;6105702;29;19934;-59
2023/01/27 16:37:17;;;;;;;;;;;21.40;45.00;;;;;;6103651;29;19931;-60
2023/01/27 16:40:21;;;;;;;;;;;21.50;45.00;;;;;;6103728;29;19950;-59
2023/01/27 16:43:24;;;;;;;;;;;21.70;45.20;;;;;;6104215;29;19927;-60
2023/01/27 16:46:29;;;;;;;;;;;21.50;45.10;;;;;;6108915;29;19928;-56
2023/01/27 16:49:32;;;;;;;;;;;21.70;45.10;;;;;;6108476;29;19927;-58
2023/01/27 16:52:34;;;;;;;;;;;21.10;45.00;;;;;;6104133;29;19966;-57
2023/01/27 16:55:53;;;;;;;;;;;22.10;45.60;;;;;;6103688;29;19939;-57
2023/01/27 16:58:58;;;;;;;;;;;21.30;45.10;;;;;;6103844;29;19934;-56
2023/01/27 17:02:01;;;;;;;;;;;21.70;45.40;;;;;;6103991;29;19928;-55
2023/01/27 17:05:04;;;;;;;;;;;21.30;45.30;;;;;;6104378;29;20405;-56
2023/01/27 17:08:15;;;;;;;;;;;21.90;45.60;;;;;;6102211;29;19931;-56
2023/01/27 17:11:21;;;;;;;;;;;21.30;45.20;;;;;;6103514;29;19934;-56
2023/01/27 17:14:27;;;;;;;;;;;21.60;44.60;;;;;;6102883;29;20431;-56
2023/01/27 17:17:34;;;;;;;;;;;21.20;45.30;;;;;;6102269;29;19979;-57
2023/01/27 17:20:37;;;;;;;;;;;21.90;45.60;;;;;;6103640;29;19927;-57
2023/01/27 17:23:39;;;;;;;;;;;21.50;45.40;;;;;;6103157;29;19927;-57
2023/01/27 17:26:42;;;;;;;;;;;21.60;45.60;;;;;;6103238;29;19955;-57
2023/01/27 17:29:45;;;;;;;;;;;21.40;45.40;;;;;;6103577;29;19952;-55
2023/01/27 17:32:47;;;;;;;;;;;21.90;45.90;;;;;;6102102;29;19931;-55
2023/01/27 17:35:49;;;;;;;;;;;21.10;45.40;;;;;;6103113;29;20017;-55
2023/01/27 17:38:53;;;;;;;;;;;21.80;45.90;;;;;;6103401;29;20402;-57
2023/01/27 17:41:57;;;;;;;;;;;21.10;45.60;;;;;;6103101;29;19977;-56
2023/01/27 17:45:19;;;;;;;;;;;22.00;46.20;;;;;;6103721;29;19994;-56
2023/01/27 17:48:20;;;;;;;;;;;21.00;45.70;;;;;;6101853;29;19934;-55
2023/01/27 17:51:23;;;;;;;;;;;21.90;46.40;;;;;;6102957;29;19931;-56
2023/01/27 17:54:25;;;;;;;;;;;20.90;45.70;;;;;;6103002;29;20403;-56
2023/01/27 17:57:31;;;;;;;;;;;21.90;46.20;;;;;;6103125;29;20374;-56
2023/01/27 18:00:34;;;;;;;;;;;21.10;46.00;;;;;;6102937;29;19940;-56
2023/01/27 18:03:35;;;;;;;;;;;21.50;46.10;;;;;;6101620;29;19935;-55
2023/01/27 18:06:38;;;;;;;;;;;21.20;45.60;;;;;;6103460;29;19931;-55
2023/01/27 18:09:42;;;;;;;;;;;21.60;46.20;;;;;;6102834;29;19983;-55
2023/01/27 18:12:46;;;;;;;;;;;20.90;45.80;;;;;;6102695;29;20044;-57
2023/01/27 18:15:49;;;;;;;;;;;21.90;46.50;;;;;;6102614;29;19966;-55
2023/01/27 18:18:50;;;;;;;;;;;20.80;45.80;;;;;;6101820;29;20304;-56
2023/01/27 18:21:59;;;;;;;;;;;21.30;46.00;;;;;;6102634;29;19927;-57
2023/01/27 18:25:02;;;;;;;;;;;21.10;45.80;;;;;;6102587;29;20391;-55
2023/01/27 18:28:04;;;;;;;;;;;21.30;46.00;;;;;;6102916;29;20379;-55
2023/01/27 18:31:11;;;;;;;;;;;20.70;45.90;;;;;;6102873;29;19927;-54
2023/01/27 18:34:20;;;;;;;;;;;21.20;45.90;;;;;;6103788;29;19931;-56
2023/01/27 18:37:25;;;;;;;;;;;20.90;45.90;;;;;;6107511;29;19927;-57
2023/01/27 18:40:28;;;;;;;;;;;21.20;45.80;;;;;;6106973;29;19970;-55
2023/01/27 18:43:29;;;;;;;;;;;21.30;46.10;;;;;;6106640;29;20332;-55
2023/01/27 18:46:31;;;;;;;;;;;21.50;46.40;;;;;;6106279;29;19978;-55
2023/01/27 18:49:32;;;;;;;;;;;20.90;45.90;;;;;;6106101;29;20295;-57
2023/01/27 18:52:33;;;;;;;;;;;21.10;46.30;;;;;;6106522;29;19927;-56
2023/01/27 18:55:35;;;;;;;;;;;20.60;46.00;;;;;;6106811;29;19927;-55
2023/01/27 18:58:37;;;;;;;;;;;20.90;46.20;;;;;;6105930;29;19934;-55
2023/01/27 19:01:39;;;;;;;;;;;20.90;46.10;;;;;;6106227;29;19931;-54
2023/01/27 19:04:40;;;;;;;;;;;20.90;46.20;;;;;;6106030;29;19927;-54
2023/01/27 19:07:41;;;;;;;;;;;20.30;45.60;;;;;;6106465;29;20288;-56
2023/01/27 19:10:43;;;;;;;;;;;21.00;46.20;;;;;;6105584;29;19927;-56
2023/01/27 19:13:47;;;;;;;;;;;21.00;46.10;;;;;;6105740;29;20391;-56
2023/01/27 19:16:48;;;;;;;;;;;21.30;46.40;;;;;;6105619;29;19934;-55
2023/01/27 19:19:49;;;;;;;;;;;20.50;45.90;;;;;;6105868;29;19962;-53
2023/01/27 19:22:51;;;;;;;;;;;20.80;45.90;;;;;;6105403;29;19927;-55
2023/01/27 19:25:53;;;;;;;;;;;20.50;45.90;;;;;;6105429;29;19978;-56
2023/01/27 19:28:56;;;;;;;;;;;21.20;46.20;;;;;;6104363;29;19927;-56
2023/01/27 19:31:58;;;;;;;;;;;20.60;45.90;;;;;;6105345;29;19934;-56
2023/01/27 19:34:59;;;;;;;;;;;21.40;46.40;;;;;;6105248;29;19927;-54
2023/01/27 19:38:02;;;;;;;;;;;20.50;46.00;;;;;;6105522;29;20376;-54
2023/01/27 19:41:03;;;;;;;;;;;20.70;45.90;;;;;;6105322;29;19927;-57
2023/01/27 19:44:05;;;;;;;;;;;20.50;45.90;;;;;;6105099;29;20442;-56
2023/01/27 19:47:08;;;;;;;;;;;21.20;46.40;;;;;;6105147;29;19982;-54
2023/01/27 19:50:14;;;;;;;;;;;20.40;45.70;;;;;;6105098;29;19934;-55
2023/01/27 19:53:16;;;;;;;;;;;21.20;46.20;;;;;;6103677;29;19959;-55
2023/01/27 19:56:18;;;;;;;;;;;20.30;45.90;;;;;;6103537;29;20402;-51
2023/01/27 19:59:20;;;;;;;;;;;20.90;46.30;;;;;;6104728;29;19949;-54
2023/01/27 20:02:22;;;;;;;;;;;20.40;45.90;;;;;;6104353;29;19927;-56
2023/01/27 20:05:24;;;;;;;;;;;21.10;46.40;;;;;;6104761;29;20356;-54
2023/01/27 20:08:25;;;;;;;;;;;20.30;45.80;;;;;;6104592;29;19927;-56
2023/01/27 20:11:29;;;;;;;;;;;21.10;46.40;;;;;;6104867;29;19934;-56
2023/01/27 20:14:31;;;;;;;;;;;20.70;45.80;;;;;;6104907;29;19927;-56
2023/01/27 20:17:32;;;;;;;;;;;20.50;45.90;;;;;;6105347;29;20304;-50
2023/01/27 20:20:33;;;;;;;;;;;20.10;45.70;;;;;;6104300;29;19927;-54
2023/01/27 20:23:34;;;;;;;;;;;21.20;46.30;;;;;;6104363;29;20387;-56
2023/01/27 20:26:36;;;;;;;;;;;20.40;45.80;;;;;;6104505;29;20384;-56
2023/01/27 20:29:38;;;;;;;;;;;20.70;46.00;;;;;;6104730;29;19928;-55
2023/01/27 20:32:40;;;;;;;;;;;20.10;45.70;;;;;;6104338;29;19934;-56
2023/01/27 20:35:41;;;;;;;;;;;20.50;46.00;;;;;;6104784;29;19934;-54
2023/01/27 20:38:42;;;;;;;;;;;20.30;45.90;;;;;;6103934;29;20394;-55
2023/01/27 20:41:44;;;;;;;;;;;21.00;46.30;;;;;;6104262;29;19938;-56
2023/01/27 20:44:46;;;;;;;;;;;20.70;46.50;;;;;;6102415;29;19927;-56
2023/01/27 20:47:48;;;;;;;;;;;20.60;46.00;;;;;;6103671;29;19978;-55
2023/01/27 20:50:56;;;;;;;;;;;19.90;45.50;;;;;;6104038;29;20017;-56
2023/01/27 20:53:59;;;;;;;;;;;20.80;45.90;;;;;;6103739;29;19927;-54
2023/01/27 20:57:00;;;;;;;;;;;20.20;45.90;;;;;;6103050;29;19931;-56
2023/01/27 21:00:02;;;;;;;;;;;20.00;45.80;;;;;;6103418;29;19927;-56
2023/01/27 21:03:04;;;;;;;;;;;20.40;45.90;;;;;;6103649;29;19979;-57
2023/01/27 21:06:06;;;;;;;;;;;20.80;45.60;;;;;;6103540;29;20391;-54
2023/01/27 21:09:07;;;;;;;;;;;20.20;45.70;;;;;;6103261;29;19927;-56
2023/01/27 21:12:09;;;;;;;;;;;20.30;45.80;;;;;;6103525;29;19927;-53
2023/01/27 21:15:11;;;;;;;;;;;20.20;45.80;;;;;;6103358;29;19927;-53
2023/01/27 21:18:13;;;;;;;;;;;21.00;46.20;;;;;;6103184;29;20353;-53
2023/01/27 21:21:21;;;;;;;;;;;20.80;45.80;;;;;;6103472;29;20399;-54
2023/01/27 21:24:22;;;;;;;;;;;20.40;45.80;;;;;;6103335;29;20344;-54
2023/01/27 21:27:24;;;;;;;;;;;20.00;45.80;;;;;;6103257;29;19966;-56
2023/01/27 21:30:27;;;;;;;;;;;20.50;46.00;;;;;;6103637;29;19966;-55
2023/01/27 21:33:28;;;;;;;;;;;20.70;46.00;;;;;;6102973;29;19935;-55
2023/01/27 21:36:29;;;;;;;;;;;20.10;45.60;;;;;;6102706;29;19931;-55
2023/01/27 21:39:31;;;;;;;;;;;20.00;45.80;;;;;;6103203;29;20388;-52
2023/01/27 21:45:57;;;;;;;;;;;20.40;45.30;;;;;;6102609;29;20399;-56
2023/01/27 21:48:58;;;;;;;;;;;20.00;45.60;;;;;;6103057;29;19942;-55
2023/01/27 21:52:00;;;;;;;;;;;20.10;45.70;;;;;;6103091;29;19927;-56
2023/01/27 21:55:03;;;;;;;;;;;20.40;45.80;;;;;;6102910;29;19927;-55
2023/01/27 21:58:04;;;;;;;;;;;20.80;46.10;;;;;;6102464;29;19935;-55
2023/01/27 22:01:07;;;;;;;;;;;20.00;45.60;;;;;;6102613;29;19934;-54
2023/01/27 22:04:08;;;;;;;;;;;19.90;45.60;;;;;;6102576;29;19927;-54
2023/01/27 22:07:11;;;;;;;;;;;20.10;45.80;;;;;;6103021;29;19928;-51
2023/01/27 22:10:14;;;;;;;;;;;20.80;45.90;;;;;;6105310;29;19927;-55
2023/01/27 22:13:15;;;;;;;;;;;20.00;45.60;;;;;;6106187;29;20431;-54
2023/01/27 22:16:17;;;;;;;;;;;19.70;45.40;;;;;;6107213;29;19934;-54
2023/01/27 22:19:18;;;;;;;;;;;19.90;45.60;;;;;;6107083;29;19949;-56
2023/01/27 22:22:20;;;;;;;;;;;20.70;46.20;;;;;;6106530;29;19927;-55
2023/01/27 22:25:21;;;;;;;;;;;20.30;45.80;;;;;;6106931;29;20300;-55
2023/01/27 22:28:23;;;;;;;;;;;20.00;45.70;;;;;;6106391;29;20387;-54
2023/01/27 22:31:25;;;;;;;;;;;20.00;45.60;;;;;;6104950;29;19931;-54
2023/01/27 22:34:26;;;;;;;;;;;20.10;45.90;;;;;;6105419;29;20431;-55
2023/01/27 22:37:27;;;;;;;;;;;20.10;45.80;;;;;;6106456;29;19934;-55
2023/01/27 22:40:29;;;;;;;;;;;20.60;46.10;;;;;;6106134;29;19927;-56
2023/01/27 22:43:30;;;;;;;;;;;19.90;45.60;;;;;;6105966;29;19927;-56
2023/01/27 22:46:32;;;;;;;;;;;20.20;45.80;;;;;;6106109;29;19982;-56
2023/01/27 22:49:33;;;;;;;;;;;19.80;45.50;;;;;;6106311;29;19931;-56
2023/01/27 22:52:35;;;;;;;;;;;20.10;45.70;;;;;;6105718;29;19927;-55
2023/01/27 22:55:37;;;;;;;;;;;19.90;45.50;;;;;;6104720;29;19931;-55
2023/01/27 22:58:38;;;;;;;;;;;20.60;45.90;;;;;;6105704;29;20018;-57
2023/01/27 23:01:39;;;;;;;;;;;20.00;45.70;;;;;;6105981;29;19927;-55
2023/01/27 23:04:41;;;;;;;;;;;20.30;45.80;;;;;;6105801;29;19982;-57
2023/01/27 23:07:43;;;;;;;;;;;20.20;45.80;;;;;;6105598;29;19938;-53
2023/01/27 23:10:44;;;;;;;;;;;19.80;45.70;;;;;;6105431;29;19927;-56
2023/01/27 23:13:45;;;;;;;;;;;20.30;45.60;;;;;;6105536;29;19950;-55
2023/01/27 23:16:46;;;;;;;;;;;20.70;46.00;;;;;;6105583;29;19931;-56
2023/01/27 23:19:48;;;;;;;;;;;20.00;45.60;;;;;;6104673;29;20458;-56
2023/01/27 23:22:50;;;;;;;;;;;19.90;45.40;;;;;;6105757;29;19934;-55
2023/01/27 23:25:51;;;;;;;;;;;20.20;45.50;;;;;;6105225;29;19958;-54
2023/01/27 23:28:53;;;;;;;;;;;19.80;45.30;;;;;;6105892;29;20021;-56
2023/01/27 23:31:54;;;;;;;;;;;20.20;45.30;;;;;;6105357;29;19934;-55
2023/01/27 23:34:56;;;;;;;;;;;19.90;45.20;;;;;;6105813;29;20344;-55
2023/01/27 23:37:57;;;;;;;;;;;20.10;45.30;;;;;;6105135;29;20420;-55
2023/01/27 23:40:59;;;;;;;;;;;20.80;45.50;;;;;;6103732;29;19975;-53
2023/01/27 23:44:01;;;;;;;;;;;20.20;45.20;;;;;;6105129;29;20444;-55
2023/01/27 23:47:02;;;;;;;;;;;20.00;45.10;;;;;;6104651;29;19927;-54
2023/01/27 23:50:04;;;;;;;;;;;20.10;45.10;;;;;;6105158;29;19938;-56
2023/01/27 23:53:05;;;;;;;;;;;20.00;44.90;;;;;;6104946;29;19934;-56
2023/01/27 23:56:10;;;;;;;;;;;20.10;44.90;;;;;;6104832;29;19928;-55
2023/01/27 23:59:12;;;;;;;;;;;20.00;44.70;;;;;;6104916;29;20335;-54
